sensor_id;sensor_type;location;lat;lon;timestamp;P1;durP1;ratioP1;P2;durP2;ratioP2
78985;SDS011;68384;55.750;48.746;2024-03-08T00:00:17;5.78;;;2.60;;
78985;SDS011;68384;55.750;48.746;2024-03-08T00:01:21;3.60;;;2.28;;
78985;SDS011;68384;55.750;48.746;2024-03-08T00:02:23;4.60;;;2.42;;
78985;SDS011;68384;55.750;48.746;2024-03-08T00:03:25;3.70;;;2.35;;
78985;SDS011;68384;55.750;48.746;2024-03-08T00:04:28;4.93;;;2.42;;
78985;SDS011;68384;55.750;48.746;2024-03-08T00:05:30;4.63;;;2.35;;
78985;SDS011;68384;55.750;48.746;2024-03-08T00:06:33;5.90;;;2.53;;
78985;SDS011;68384;55.750;48.746;2024-03-08T00:07:35;4.65;;;2.40;;
78985;SDS011;68384;55.750;48.746;2024-03-08T00:08:38;3.13;;;1.98;;
78985;SDS011;68384;55.750;48.746;2024-03-08T00:09:40;5.53;;;2.45;;
78985;SDS011;68384;55.750;48.746;2024-03-08T00:10:42;4.63;;;2.17;;
78985;SDS011;68384;55.750;48.746;2024-03-08T00:11:44;6.88;;;2.38;;
78985;SDS011;68384;55.750;48.746;2024-03-08T00:12:46;3.42;;;2.38;;
78985;SDS011;68384;55.750;48.746;2024-03-08T00:13:48;3.70;;;2.30;;
78985;SDS011;68384;55.750;48.746;2024-03-08T00:14:51;4.88;;;2.30;;
78985;SDS011;68384;55.750;48.746;2024-03-08T00:15:53;7.07;;;3.05;;
78985;SDS011;68384;55.750;48.746;2024-03-08T00:16:55;4.95;;;2.47;;
78985;SDS011;68384;55.750;48.746;2024-03-08T00:17:57;3.47;;;2.10;;
78985;SDS011;68384;55.750;48.746;2024-03-08T00:19:00;2.83;;;1.95;;
78985;SDS011;68384;55.750;48.746;2024-03-08T00:20:02;5.82;;;2.55;;
78985;SDS011;68384;55.750;48.746;2024-03-08T00:21:10;4.03;;;2.42;;
78985;SDS011;68384;55.750;48.746;2024-03-08T00:22:13;3.33;;;2.00;;
78985;SDS011;68384;55.750;48.746;2024-03-08T00:23:15;4.72;;;2.50;;
78985;SDS011;68384;55.750;48.746;2024-03-08T00:24:18;3.70;;;2.03;;
78985;SDS011;68384;55.750;48.746;2024-03-08T00:25:20;4.57;;;2.78;;
78985;SDS011;68384;55.750;48.746;2024-03-08T00:26:22;3.80;;;2.35;;
78985;SDS011;68384;55.750;48.746;2024-03-08T00:27:24;4.38;;;1.98;;
78985;SDS011;68384;55.750;48.746;2024-03-08T00:28:26;3.90;;;2.28;;
78985;SDS011;68384;55.750;48.746;2024-03-08T00:29:29;5.32;;;2.60;;
78985;SDS011;68384;55.750;48.746;2024-03-08T00:30:31;3.33;;;2.25;;
78985;SDS011;68384;55.750;48.746;2024-03-08T00:31:33;3.28;;;2.00;;
78985;SDS011;68384;55.750;48.746;2024-03-08T00:32:35;4.35;;;2.17;;
78985;SDS011;68384;55.750;48.746;2024-03-08T00:33:39;5.07;;;2.78;;
78985;SDS011;68384;55.750;48.746;2024-03-08T00:34:41;4.28;;;2.40;;
78985;SDS011;68384;55.750;48.746;2024-03-08T00:35:44;3.33;;;2.40;;
78985;SDS011;68384;55.750;48.746;2024-03-08T00:36:46;4.90;;;2.65;;
78985;SDS011;68384;55.750;48.746;2024-03-08T00:37:49;5.95;;;2.65;;
78985;SDS011;68384;55.750;48.746;2024-03-08T00:38:52;4.32;;;2.10;;
78985;SDS011;68384;55.750;48.746;2024-03-08T00:39:54;4.45;;;2.38;;
78985;SDS011;68384;55.750;48.746;2024-03-08T00:40:56;4.25;;;2.40;;
78985;SDS011;68384;55.750;48.746;2024-03-08T00:41:58;5.60;;;2.28;;
78985;SDS011;68384;55.750;48.746;2024-03-08T00:43:00;7.35;;;2.67;;
78985;SDS011;68384;55.750;48.746;2024-03-08T00:44:05;4.28;;;2.30;;
78985;SDS011;68384;55.750;48.746;2024-03-08T00:45:07;4.50;;;1.92;;
78985;SDS011;68384;55.750;48.746;2024-03-08T00:46:12;4.03;;;2.20;;
78985;SDS011;68384;55.750;48.746;2024-03-08T00:47:14;4.68;;;2.33;;
78985;SDS011;68384;55.750;48.746;2024-03-08T00:48:16;4.35;;;2.55;;
78985;SDS011;68384;55.750;48.746;2024-03-08T00:49:19;6.03;;;2.42;;
78985;SDS011;68384;55.750;48.746;2024-03-08T00:50:21;4.05;;;2.30;;
78985;SDS011;68384;55.750;48.746;2024-03-08T00:51:24;3.58;;;2.03;;
78985;SDS011;68384;55.750;48.746;2024-03-08T00:52:26;3.90;;;2.15;;
78985;SDS011;68384;55.750;48.746;2024-03-08T00:53:28;4.45;;;2.75;;
78985;SDS011;68384;55.750;48.746;2024-03-08T00:54:30;6.22;;;2.65;;
78985;SDS011;68384;55.750;48.746;2024-03-08T00:55:32;4.10;;;2.33;;
78985;SDS011;68384;55.750;48.746;2024-03-08T00:56:35;3.78;;;2.05;;
78985;SDS011;68384;55.750;48.746;2024-03-08T00:57:37;3.67;;;2.42;;
78985;SDS011;68384;55.750;48.746;2024-03-08T00:58:40;4.57;;;2.72;;
78985;SDS011;68384;55.750;48.746;2024-03-08T00:59:42;6.03;;;2.17;;
78985;SDS011;68384;55.750;48.746;2024-03-08T01:00:44;4.93;;;2.47;;
78985;SDS011;68384;55.750;48.746;2024-03-08T01:01:46;3.63;;;2.13;;
78985;SDS011;68384;55.750;48.746;2024-03-08T01:02:48;4.18;;;2.65;;
78985;SDS011;68384;55.750;48.746;2024-03-08T01:03:51;3.50;;;2.33;;
78985;SDS011;68384;55.750;48.746;2024-03-08T01:04:53;4.03;;;1.90;;
78985;SDS011;68384;55.750;48.746;2024-03-08T01:05:55;5.28;;;2.17;;
78985;SDS011;68384;55.750;48.746;2024-03-08T01:06:58;3.50;;;2.40;;
78985;SDS011;68384;55.750;48.746;2024-03-08T01:08:01;6.38;;;2.20;;
78985;SDS011;68384;55.750;48.746;2024-03-08T01:09:05;3.22;;;2.00;;
78985;SDS011;68384;55.750;48.746;2024-03-08T01:10:09;4.78;;;2.08;;
78985;SDS011;68384;55.750;48.746;2024-03-08T01:11:15;5.88;;;2.28;;
78985;SDS011;68384;55.750;48.746;2024-03-08T01:12:17;4.25;;;2.22;;
78985;SDS011;68384;55.750;48.746;2024-03-08T01:13:19;3.35;;;1.98;;
78985;SDS011;68384;55.750;48.746;2024-03-08T01:14:23;3.95;;;2.20;;
78985;SDS011;68384;55.750;48.746;2024-03-08T01:15:27;3.80;;;2.17;;
78985;SDS011;68384;55.750;48.746;2024-03-08T01:16:29;4.97;;;2.40;;
78985;SDS011;68384;55.750;48.746;2024-03-08T01:17:32;3.60;;;2.22;;
78985;SDS011;68384;55.750;48.746;2024-03-08T01:18:35;3.85;;;2.20;;
78985;SDS011;68384;55.750;48.746;2024-03-08T01:19:37;4.63;;;2.50;;
78985;SDS011;68384;55.750;48.746;2024-03-08T01:20:40;3.67;;;2.30;;
78985;SDS011;68384;55.750;48.746;2024-03-08T01:21:43;6.47;;;2.40;;
78985;SDS011;68384;55.750;48.746;2024-03-08T01:22:45;3.92;;;1.92;;
78985;SDS011;68384;55.750;48.746;2024-03-08T01:23:47;3.90;;;2.20;;
78985;SDS011;68384;55.750;48.746;2024-03-08T01:24:49;5.22;;;2.25;;
78985;SDS011;68384;55.750;48.746;2024-03-08T01:25:52;3.70;;;2.33;;
78985;SDS011;68384;55.750;48.746;2024-03-08T01:26:58;4.93;;;2.80;;
78985;SDS011;68384;55.750;48.746;2024-03-08T01:28:01;4.45;;;2.40;;
78985;SDS011;68384;55.750;48.746;2024-03-08T01:29:04;5.40;;;2.40;;
78985;SDS011;68384;55.750;48.746;2024-03-08T01:30:06;3.70;;;1.80;;
78985;SDS011;68384;55.750;48.746;2024-03-08T01:31:11;4.93;;;2.15;;
78985;SDS011;68384;55.750;48.746;2024-03-08T01:32:14;5.50;;;2.63;;
78985;SDS011;68384;55.750;48.746;2024-03-08T01:33:16;5.82;;;2.60;;
78985;SDS011;68384;55.750;48.746;2024-03-08T01:34:18;3.35;;;1.85;;
78985;SDS011;68384;55.750;48.746;2024-03-08T01:35:21;4.68;;;2.40;;
78985;SDS011;68384;55.750;48.746;2024-03-08T01:36:24;3.88;;;2.30;;
78985;SDS011;68384;55.750;48.746;2024-03-08T01:37:26;3.80;;;2.33;;
78985;SDS011;68384;55.750;48.746;2024-03-08T01:38:28;5.20;;;2.35;;
78985;SDS011;68384;55.750;48.746;2024-03-08T01:39:30;6.22;;;2.28;;
78985;SDS011;68384;55.750;48.746;2024-03-08T01:40:34;4.30;;;2.50;;
78985;SDS011;68384;55.750;48.746;2024-03-08T01:41:36;6.13;;;2.80;;
78985;SDS011;68384;55.750;48.746;2024-03-08T01:42:39;4.97;;;2.63;;
78985;SDS011;68384;55.750;48.746;2024-03-08T01:43:41;5.88;;;2.50;;
78985;SDS011;68384;55.750;48.746;2024-03-08T01:44:43;5.40;;;2.67;;
78985;SDS011;68384;55.750;48.746;2024-03-08T01:45:46;4.95;;;2.40;;
78985;SDS011;68384;55.750;48.746;2024-03-08T01:46:48;7.75;;;2.35;;
78985;SDS011;68384;55.750;48.746;2024-03-08T01:47:52;4.15;;;2.45;;
78985;SDS011;68384;55.750;48.746;2024-03-08T01:48:55;3.72;;;2.28;;
78985;SDS011;68384;55.750;48.746;2024-03-08T01:49:58;5.53;;;2.30;;
78985;SDS011;68384;55.750;48.746;2024-03-08T01:51:05;4.03;;;2.80;;
78985;SDS011;68384;55.750;48.746;2024-03-08T01:52:07;3.90;;;2.38;;
78985;SDS011;68384;55.750;48.746;2024-03-08T01:53:09;5.07;;;2.30;;
78985;SDS011;68384;55.750;48.746;2024-03-08T01:54:14;6.45;;;2.50;;
78985;SDS011;68384;55.750;48.746;2024-03-08T01:55:18;4.82;;;2.42;;
78985;SDS011;68384;55.750;48.746;2024-03-08T01:56:21;5.38;;;2.28;;
78985;SDS011;68384;55.750;48.746;2024-03-08T01:57:23;5.50;;;3.03;;
78985;SDS011;68384;55.750;48.746;2024-03-08T01:58:27;4.55;;;2.00;;
78985;SDS011;68384;55.750;48.746;2024-03-08T01:59:30;9.05;;;1.85;;
78985;SDS011;68384;55.750;48.746;2024-03-08T02:00:33;5.65;;;2.50;;
78985;SDS011;68384;55.750;48.746;2024-03-08T02:01:37;6.72;;;2.72;;
78985;SDS011;68384;55.750;48.746;2024-03-08T02:02:39;5.38;;;2.17;;
78985;SDS011;68384;55.750;48.746;2024-03-08T02:03:45;5.03;;;2.65;;
78985;SDS011;68384;55.750;48.746;2024-03-08T02:04:48;4.07;;;2.40;;
78985;SDS011;68384;55.750;48.746;2024-03-08T02:05:50;3.42;;;2.50;;
78985;SDS011;68384;55.750;48.746;2024-03-08T02:06:53;4.53;;;2.58;;
78985;SDS011;68384;55.750;48.746;2024-03-08T02:07:55;4.07;;;2.25;;
78985;SDS011;68384;55.750;48.746;2024-03-08T02:08:58;3.33;;;2.03;;
78985;SDS011;68384;55.750;48.746;2024-03-08T02:10:01;5.38;;;2.50;;
78985;SDS011;68384;55.750;48.746;2024-03-08T02:11:03;6.00;;;2.30;;
78985;SDS011;68384;55.750;48.746;2024-03-08T02:12:07;4.88;;;2.35;;
78985;SDS011;68384;55.750;48.746;2024-03-08T02:13:12;4.45;;;2.45;;
78985;SDS011;68384;55.750;48.746;2024-03-08T02:14:14;4.72;;;2.35;;
78985;SDS011;68384;55.750;48.746;2024-03-08T02:15:16;6.63;;;2.78;;
78985;SDS011;68384;55.750;48.746;2024-03-08T02:16:21;3.42;;;2.33;;
78985;SDS011;68384;55.750;48.746;2024-03-08T02:17:24;3.78;;;1.88;;
78985;SDS011;68384;55.750;48.746;2024-03-08T02:18:27;5.60;;;2.22;;
78985;SDS011;68384;55.750;48.746;2024-03-08T02:19:31;5.38;;;2.33;;
78985;SDS011;68384;55.750;48.746;2024-03-08T02:20:34;5.57;;;2.67;;
78985;SDS011;68384;55.750;48.746;2024-03-08T02:21:36;5.35;;;2.80;;
78985;SDS011;68384;55.750;48.746;2024-03-08T02:22:39;5.40;;;2.92;;
78985;SDS011;68384;55.750;48.746;2024-03-08T02:23:41;3.78;;;2.55;;
78985;SDS011;68384;55.750;48.746;2024-03-08T02:24:43;5.68;;;2.50;;
78985;SDS011;68384;55.750;48.746;2024-03-08T02:25:47;3.85;;;2.00;;
78985;SDS011;68384;55.750;48.746;2024-03-08T02:26:50;4.45;;;2.90;;
78985;SDS011;68384;55.750;48.746;2024-03-08T02:27:52;4.85;;;2.80;;
78985;SDS011;68384;55.750;48.746;2024-03-08T02:28:55;5.38;;;2.78;;
78985;SDS011;68384;55.750;48.746;2024-03-08T02:29:57;6.00;;;2.90;;
78985;SDS011;68384;55.750;48.746;2024-03-08T02:30:59;5.32;;;2.55;;
78985;SDS011;68384;55.750;48.746;2024-03-08T02:32:01;6.97;;;2.47;;
78985;SDS011;68384;55.750;48.746;2024-03-08T02:33:05;4.43;;;2.30;;
78985;SDS011;68384;55.750;48.746;2024-03-08T02:34:07;4.28;;;2.40;;
78985;SDS011;68384;55.750;48.746;2024-03-08T02:35:09;5.00;;;2.97;;
78985;SDS011;68384;55.750;48.746;2024-03-08T02:36:11;6.97;;;2.30;;
78985;SDS011;68384;55.750;48.746;2024-03-08T02:37:14;3.58;;;2.10;;
78985;SDS011;68384;55.750;48.746;2024-03-08T02:38:20;5.45;;;2.65;;
78985;SDS011;68384;55.750;48.746;2024-03-08T02:39:24;4.53;;;2.58;;
78985;SDS011;68384;55.750;48.746;2024-03-08T02:40:26;5.95;;;2.97;;
78985;SDS011;68384;55.750;48.746;2024-03-08T02:41:28;5.15;;;2.95;;
78985;SDS011;68384;55.750;48.746;2024-03-08T02:42:30;4.78;;;2.90;;
78985;SDS011;68384;55.750;48.746;2024-03-08T02:43:32;5.93;;;2.83;;
78985;SDS011;68384;55.750;48.746;2024-03-08T02:44:35;5.95;;;2.45;;
78985;SDS011;68384;55.750;48.746;2024-03-08T02:45:38;4.43;;;2.28;;
78985;SDS011;68384;55.750;48.746;2024-03-08T02:46:40;4.97;;;2.47;;
78985;SDS011;68384;55.750;48.746;2024-03-08T02:47:42;5.15;;;3.05;;
78985;SDS011;68384;55.750;48.746;2024-03-08T02:48:44;5.82;;;3.03;;
78985;SDS011;68384;55.750;48.746;2024-03-08T02:49:47;3.90;;;2.35;;
78985;SDS011;68384;55.750;48.746;2024-03-08T02:50:49;5.18;;;2.60;;
78985;SDS011;68384;55.750;48.746;2024-03-08T02:51:53;4.13;;;2.30;;
78985;SDS011;68384;55.750;48.746;2024-03-08T02:52:55;5.85;;;2.75;;
78985;SDS011;68384;55.750;48.746;2024-03-08T02:53:58;5.20;;;2.58;;
78985;SDS011;68384;55.750;48.746;2024-03-08T02:55:00;7.82;;;3.10;;
78985;SDS011;68384;55.750;48.746;2024-03-08T02:56:03;4.03;;;2.40;;
78985;SDS011;68384;55.750;48.746;2024-03-08T02:57:06;5.72;;;3.00;;
78985;SDS011;68384;55.750;48.746;2024-03-08T02:58:09;5.43;;;3.03;;
78985;SDS011;68384;55.750;48.746;2024-03-08T02:59:15;5.10;;;3.75;;
78985;SDS011;68384;55.750;48.746;2024-03-08T03:00:19;4.38;;;2.70;;
78985;SDS011;68384;55.750;48.746;2024-03-08T03:01:23;7.78;;;2.38;;
78985;SDS011;68384;55.750;48.746;2024-03-08T03:02:25;6.32;;;2.72;;
78985;SDS011;68384;55.750;48.746;2024-03-08T03:03:28;5.07;;;3.10;;
78985;SDS011;68384;55.750;48.746;2024-03-08T03:04:30;6.80;;;2.55;;
78985;SDS011;68384;55.750;48.746;2024-03-08T03:05:32;6.35;;;3.30;;
78985;SDS011;68384;55.750;48.746;2024-03-08T03:06:35;4.80;;;2.25;;
78985;SDS011;68384;55.750;48.746;2024-03-08T03:07:38;3.63;;;2.05;;
78985;SDS011;68384;55.750;48.746;2024-03-08T03:08:40;4.88;;;2.33;;
78985;SDS011;68384;55.750;48.746;2024-03-08T03:09:44;6.68;;;2.38;;
78985;SDS011;68384;55.750;48.746;2024-03-08T03:10:47;4.03;;;2.38;;
78985;SDS011;68384;55.750;48.746;2024-03-08T03:11:49;6.35;;;2.80;;
78985;SDS011;68384;55.750;48.746;2024-03-08T03:12:51;4.20;;;2.50;;
78985;SDS011;68384;55.750;48.746;2024-03-08T03:13:54;5.85;;;2.60;;
78985;SDS011;68384;55.750;48.746;2024-03-08T03:14:57;5.93;;;2.58;;
78985;SDS011;68384;55.750;48.746;2024-03-08T03:15:59;5.53;;;2.50;;
78985;SDS011;68384;55.750;48.746;2024-03-08T03:17:02;4.63;;;2.75;;
78985;SDS011;68384;55.750;48.746;2024-03-08T03:18:04;7.85;;;3.47;;
78985;SDS011;68384;55.750;48.746;2024-03-08T03:19:10;4.70;;;2.42;;
78985;SDS011;68384;55.750;48.746;2024-03-08T03:20:12;5.88;;;2.97;;
78985;SDS011;68384;55.750;48.746;2024-03-08T03:21:15;4.65;;;2.72;;
78985;SDS011;68384;55.750;48.746;2024-03-08T03:22:19;4.03;;;2.80;;
78985;SDS011;68384;55.750;48.746;2024-03-08T03:23:21;6.10;;;3.35;;
78985;SDS011;68384;55.750;48.746;2024-03-08T03:24:24;5.85;;;2.75;;
78985;SDS011;68384;55.750;48.746;2024-03-08T03:25:27;5.50;;;2.80;;
78985;SDS011;68384;55.750;48.746;2024-03-08T03:26:38;3.63;;;2.50;;
78985;SDS011;68384;55.750;48.746;2024-03-08T03:27:42;6.70;;;2.95;;
78985;SDS011;68384;55.750;48.746;2024-03-08T03:28:45;4.70;;;2.50;;
78985;SDS011;68384;55.750;48.746;2024-03-08T03:29:47;4.72;;;3.05;;
78985;SDS011;68384;55.750;48.746;2024-03-08T03:30:51;6.28;;;3.20;;
78985;SDS011;68384;55.750;48.746;2024-03-08T03:31:54;4.97;;;2.63;;
78985;SDS011;68384;55.750;48.746;2024-03-08T03:32:56;4.78;;;2.50;;
78985;SDS011;68384;55.750;48.746;2024-03-08T03:34:02;4.55;;;2.80;;
78985;SDS011;68384;55.750;48.746;2024-03-08T03:35:05;5.35;;;3.00;;
78985;SDS011;68384;55.750;48.746;2024-03-08T03:36:08;6.80;;;2.88;;
78985;SDS011;68384;55.750;48.746;2024-03-08T03:37:12;5.30;;;2.92;;
78985;SDS011;68384;55.750;48.746;2024-03-08T03:38:14;5.63;;;3.03;;
78985;SDS011;68384;55.750;48.746;2024-03-08T03:39:16;4.18;;;2.70;;
78985;SDS011;68384;55.750;48.746;2024-03-08T03:40:21;4.75;;;2.53;;
78985;SDS011;68384;55.750;48.746;2024-03-08T03:41:25;5.00;;;2.78;;
78985;SDS011;68384;55.750;48.746;2024-03-08T03:42:27;4.18;;;2.20;;
78985;SDS011;68384;55.750;48.746;2024-03-08T03:43:29;5.90;;;2.97;;
78985;SDS011;68384;55.750;48.746;2024-03-08T03:44:31;5.13;;;2.85;;
78985;SDS011;68384;55.750;48.746;2024-03-08T03:45:34;5.72;;;2.80;;
78985;SDS011;68384;55.750;48.746;2024-03-08T03:46:42;4.85;;;2.85;;
78985;SDS011;68384;55.750;48.746;2024-03-08T03:47:46;4.80;;;2.85;;
78985;SDS011;68384;55.750;48.746;2024-03-08T03:48:49;6.57;;;2.60;;
78985;SDS011;68384;55.750;48.746;2024-03-08T03:49:51;4.97;;;2.40;;
78985;SDS011;68384;55.750;48.746;2024-03-08T03:50:55;5.80;;;2.85;;
78985;SDS011;68384;55.750;48.746;2024-03-08T03:51:57;4.25;;;2.72;;
78985;SDS011;68384;55.750;48.746;2024-03-08T03:52:59;5.88;;;2.85;;
78985;SDS011;68384;55.750;48.746;2024-03-08T03:54:02;4.60;;;2.65;;
78985;SDS011;68384;55.750;48.746;2024-03-08T03:55:05;4.53;;;2.60;;
78985;SDS011;68384;55.750;48.746;2024-03-08T03:56:07;5.43;;;2.50;;
78985;SDS011;68384;55.750;48.746;2024-03-08T03:57:09;5.55;;;2.70;;
78985;SDS011;68384;55.750;48.746;2024-03-08T03:58:12;4.85;;;2.83;;
78985;SDS011;68384;55.750;48.746;2024-03-08T03:59:14;6.28;;;2.80;;
78985;SDS011;68384;55.750;48.746;2024-03-08T04:00:16;5.82;;;3.03;;
78985;SDS011;68384;55.750;48.746;2024-03-08T04:01:18;5.30;;;3.00;;
78985;SDS011;68384;55.750;48.746;2024-03-08T04:02:21;5.70;;;2.80;;
78985;SDS011;68384;55.750;48.746;2024-03-08T04:03:23;4.85;;;2.70;;
78985;SDS011;68384;55.750;48.746;2024-03-08T04:04:25;4.40;;;2.30;;
78985;SDS011;68384;55.750;48.746;2024-03-08T04:05:28;6.15;;;2.72;;
78985;SDS011;68384;55.750;48.746;2024-03-08T04:06:30;7.85;;;2.80;;
78985;SDS011;68384;55.750;48.746;2024-03-08T04:07:33;5.80;;;3.03;;
78985;SDS011;68384;55.750;48.746;2024-03-08T04:08:36;5.45;;;2.90;;
78985;SDS011;68384;55.750;48.746;2024-03-08T04:09:38;6.68;;;3.50;;
78985;SDS011;68384;55.750;48.746;2024-03-08T04:10:40;6.35;;;3.10;;
78985;SDS011;68384;55.750;48.746;2024-03-08T04:11:43;10.05;;;3.53;;
78985;SDS011;68384;55.750;48.746;2024-03-08T04:12:46;6.60;;;2.90;;
78985;SDS011;68384;55.750;48.746;2024-03-08T04:13:49;6.18;;;2.83;;
78985;SDS011;68384;55.750;48.746;2024-03-08T04:14:51;4.55;;;2.90;;
78985;SDS011;68384;55.750;48.746;2024-03-08T04:15:53;4.15;;;2.58;;
78985;SDS011;68384;55.750;48.746;2024-03-08T04:16:55;5.13;;;2.25;;
78985;SDS011;68384;55.750;48.746;2024-03-08T04:17:58;6.30;;;2.92;;
78985;SDS011;68384;55.750;48.746;2024-03-08T04:19:02;4.70;;;2.58;;
78985;SDS011;68384;55.750;48.746;2024-03-08T04:21:19;6.20;;;3.03;;
78985;SDS011;68384;55.750;48.746;2024-03-08T04:22:21;5.30;;;2.70;;
78985;SDS011;68384;55.750;48.746;2024-03-08T04:23:24;9.88;;;2.83;;
78985;SDS011;68384;55.750;48.746;2024-03-08T04:24:26;4.95;;;3.15;;
78985;SDS011;68384;55.750;48.746;2024-03-08T04:25:28;5.22;;;2.55;;
78985;SDS011;68384;55.750;48.746;2024-03-08T04:26:31;6.65;;;2.88;;
78985;SDS011;68384;55.750;48.746;2024-03-08T04:27:33;5.63;;;3.08;;
78985;SDS011;68384;55.750;48.746;2024-03-08T04:28:36;5.65;;;2.90;;
78985;SDS011;68384;55.750;48.746;2024-03-08T04:29:39;7.50;;;3.00;;
78985;SDS011;68384;55.750;48.746;2024-03-08T04:30:41;5.75;;;2.72;;
78985;SDS011;68384;55.750;48.746;2024-03-08T04:31:43;8.32;;;3.38;;
78985;SDS011;68384;55.750;48.746;2024-03-08T04:32:45;8.13;;;2.92;;
78985;SDS011;68384;55.750;48.746;2024-03-08T04:33:47;5.10;;;3.58;;
78985;SDS011;68384;55.750;48.746;2024-03-08T04:34:50;7.22;;;3.33;;
78985;SDS011;68384;55.750;48.746;2024-03-08T04:35:52;6.22;;;3.10;;
78985;SDS011;68384;55.750;48.746;2024-03-08T04:36:56;4.38;;;2.75;;
78985;SDS011;68384;55.750;48.746;2024-03-08T04:37:59;5.57;;;2.55;;
78985;SDS011;68384;55.750;48.746;2024-03-08T04:39:01;5.57;;;2.80;;
78985;SDS011;68384;55.750;48.746;2024-03-08T04:40:04;6.00;;;3.20;;
78985;SDS011;68384;55.750;48.746;2024-03-08T04:41:07;5.65;;;3.08;;
78985;SDS011;68384;55.750;48.746;2024-03-08T04:42:09;5.95;;;2.55;;
78985;SDS011;68384;55.750;48.746;2024-03-08T04:43:13;4.90;;;2.83;;
78985;SDS011;68384;55.750;48.746;2024-03-08T04:44:15;6.45;;;3.30;;
78985;SDS011;68384;55.750;48.746;2024-03-08T04:45:19;5.68;;;2.83;;
78985;SDS011;68384;55.750;48.746;2024-03-08T04:46:21;4.47;;;3.38;;
78985;SDS011;68384;55.750;48.746;2024-03-08T04:47:23;5.32;;;2.92;;
78985;SDS011;68384;55.750;48.746;2024-03-08T04:48:26;9.32;;;3.00;;
78985;SDS011;68384;55.750;48.746;2024-03-08T04:49:29;3.55;;;2.50;;
78985;SDS011;68384;55.750;48.746;2024-03-08T04:50:31;5.97;;;3.15;;
78985;SDS011;68384;55.750;48.746;2024-03-08T04:51:33;6.40;;;3.38;;
78985;SDS011;68384;55.750;48.746;2024-03-08T04:52:35;7.20;;;3.17;;
78985;SDS011;68384;55.750;48.746;2024-03-08T04:53:37;4.82;;;3.33;;
78985;SDS011;68384;55.750;48.746;2024-03-08T04:54:40;4.47;;;2.33;;
78985;SDS011;68384;55.750;48.746;2024-03-08T04:55:43;5.28;;;2.75;;
78985;SDS011;68384;55.750;48.746;2024-03-08T04:56:45;4.35;;;2.70;;
78985;SDS011;68384;55.750;48.746;2024-03-08T04:57:48;7.35;;;3.30;;
78985;SDS011;68384;55.750;48.746;2024-03-08T04:58:50;4.13;;;2.38;;
78985;SDS011;68384;55.750;48.746;2024-03-08T04:59:52;5.40;;;3.20;;
78985;SDS011;68384;55.750;48.746;2024-03-08T05:00:54;4.55;;;2.67;;
78985;SDS011;68384;55.750;48.746;2024-03-08T05:01:57;6.10;;;3.05;;
78985;SDS011;68384;55.750;48.746;2024-03-08T05:02:59;5.63;;;3.25;;
78985;SDS011;68384;55.750;48.746;2024-03-08T05:04:01;6.55;;;3.08;;
78985;SDS011;68384;55.750;48.746;2024-03-08T05:05:08;6.40;;;3.38;;
78985;SDS011;68384;55.750;48.746;2024-03-08T05:06:14;4.97;;;2.92;;
78985;SDS011;68384;55.750;48.746;2024-03-08T05:07:16;6.13;;;3.50;;
78985;SDS011;68384;55.750;48.746;2024-03-08T05:08:19;6.18;;;3.25;;
78985;SDS011;68384;55.750;48.746;2024-03-08T05:09:21;5.10;;;3.30;;
78985;SDS011;68384;55.750;48.746;2024-03-08T05:10:24;5.30;;;3.03;;
78985;SDS011;68384;55.750;48.746;2024-03-08T05:11:26;6.90;;;3.30;;
78985;SDS011;68384;55.750;48.746;2024-03-08T05:12:29;6.45;;;2.85;;
78985;SDS011;68384;55.750;48.746;2024-03-08T05:13:31;5.57;;;2.55;;
78985;SDS011;68384;55.750;48.746;2024-03-08T05:14:33;6.20;;;3.80;;
78985;SDS011;68384;55.750;48.746;2024-03-08T05:15:37;5.90;;;3.13;;
78985;SDS011;68384;55.750;48.746;2024-03-08T05:16:41;5.45;;;3.05;;
78985;SDS011;68384;55.750;48.746;2024-03-08T05:17:43;6.45;;;3.20;;
78985;SDS011;68384;55.750;48.746;2024-03-08T05:18:45;9.07;;;3.80;;
78985;SDS011;68384;55.750;48.746;2024-03-08T05:19:48;7.47;;;3.22;;
78985;SDS011;68384;55.750;48.746;2024-03-08T05:20:51;5.93;;;3.17;;
78985;SDS011;68384;55.750;48.746;2024-03-08T05:21:53;5.95;;;3.78;;
78985;SDS011;68384;55.750;48.746;2024-03-08T05:22:55;4.55;;;2.72;;
78985;SDS011;68384;55.750;48.746;2024-03-08T05:23:57;7.28;;;3.40;;
78985;SDS011;68384;55.750;48.746;2024-03-08T05:24:59;5.95;;;3.20;;
78985;SDS011;68384;55.750;48.746;2024-03-08T05:26:02;6.55;;;3.08;;
78985;SDS011;68384;55.750;48.746;2024-03-08T05:27:06;4.50;;;3.25;;
78985;SDS011;68384;55.750;48.746;2024-03-08T05:28:09;5.65;;;3.55;;
78985;SDS011;68384;55.750;48.746;2024-03-08T05:29:11;4.82;;;3.22;;
78985;SDS011;68384;55.750;48.746;2024-03-08T05:30:14;4.80;;;3.17;;
78985;SDS011;68384;55.750;48.746;2024-03-08T05:31:20;5.43;;;3.30;;
78985;SDS011;68384;55.750;48.746;2024-03-08T05:32:25;4.65;;;3.00;;
78985;SDS011;68384;55.750;48.746;2024-03-08T05:33:31;9.32;;;3.75;;
78985;SDS011;68384;55.750;48.746;2024-03-08T05:34:33;5.97;;;3.70;;
78985;SDS011;68384;55.750;48.746;2024-03-08T05:35:36;4.97;;;2.85;;
78985;SDS011;68384;55.750;48.746;2024-03-08T05:36:38;6.18;;;3.60;;
78985;SDS011;68384;55.750;48.746;2024-03-08T05:37:40;5.05;;;2.95;;
78985;SDS011;68384;55.750;48.746;2024-03-08T05:38:42;7.50;;;4.10;;
78985;SDS011;68384;55.750;48.746;2024-03-08T05:39:45;5.85;;;2.83;;
78985;SDS011;68384;55.750;48.746;2024-03-08T05:40:47;10.20;;;4.15;;
78985;SDS011;68384;55.750;48.746;2024-03-08T05:41:49;4.72;;;3.03;;
78985;SDS011;68384;55.750;48.746;2024-03-08T05:42:52;8.20;;;3.15;;
78985;SDS011;68384;55.750;48.746;2024-03-08T05:43:54;8.60;;;3.83;;
78985;SDS011;68384;55.750;48.746;2024-03-08T05:44:56;7.03;;;3.45;;
78985;SDS011;68384;55.750;48.746;2024-03-08T05:45:59;7.00;;;3.63;;
78985;SDS011;68384;55.750;48.746;2024-03-08T05:47:01;5.88;;;2.67;;
78985;SDS011;68384;55.750;48.746;2024-03-08T05:48:03;7.18;;;3.42;;
78985;SDS011;68384;55.750;48.746;2024-03-08T05:49:06;5.75;;;3.13;;
78985;SDS011;68384;55.750;48.746;2024-03-08T05:50:09;5.43;;;2.80;;
78985;SDS011;68384;55.750;48.746;2024-03-08T05:51:13;6.10;;;3.15;;
78985;SDS011;68384;55.750;48.746;2024-03-08T05:52:15;6.80;;;3.45;;
78985;SDS011;68384;55.750;48.746;2024-03-08T05:53:17;6.38;;;4.10;;
78985;SDS011;68384;55.750;48.746;2024-03-08T05:54:19;8.45;;;3.63;;
78985;SDS011;68384;55.750;48.746;2024-03-08T05:55:24;5.35;;;2.83;;
78985;SDS011;68384;55.750;48.746;2024-03-08T05:56:27;7.55;;;3.25;;
78985;SDS011;68384;55.750;48.746;2024-03-08T05:57:30;6.97;;;3.95;;
78985;SDS011;68384;55.750;48.746;2024-03-08T05:58:32;5.95;;;3.25;;
78985;SDS011;68384;55.750;48.746;2024-03-08T05:59:34;6.72;;;3.30;;
78985;SDS011;68384;55.750;48.746;2024-03-08T06:00:37;5.70;;;3.38;;
78985;SDS011;68384;55.750;48.746;2024-03-08T06:01:39;7.05;;;3.53;;
78985;SDS011;68384;55.750;48.746;2024-03-08T06:02:44;6.28;;;3.88;;
78985;SDS011;68384;55.750;48.746;2024-03-08T06:03:47;6.93;;;3.35;;
78985;SDS011;68384;55.750;48.746;2024-03-08T06:04:50;6.25;;;3.53;;
78985;SDS011;68384;55.750;48.746;2024-03-08T06:05:52;7.90;;;3.97;;
78985;SDS011;68384;55.750;48.746;2024-03-08T06:06:55;6.63;;;3.65;;
78985;SDS011;68384;55.750;48.746;2024-03-08T06:07:59;6.43;;;3.35;;
78985;SDS011;68384;55.750;48.746;2024-03-08T06:09:02;5.63;;;3.53;;
78985;SDS011;68384;55.750;48.746;2024-03-08T06:10:11;6.68;;;3.55;;
78985;SDS011;68384;55.750;48.746;2024-03-08T06:11:18;7.20;;;3.58;;
78985;SDS011;68384;55.750;48.746;2024-03-08T06:12:22;5.20;;;3.08;;
78985;SDS011;68384;55.750;48.746;2024-03-08T06:13:26;7.53;;;3.50;;